sensor_id;sensor_type;location;lat;lon;timestamp;temperature;humidity
74534;SHT31;63012;51.096;-115.366;2022-12-18T00:01:30;-16.83;75.58
74534;SHT31;63012;51.096;-115.366;2022-12-18T00:04:00;-16.89;75.50
74534;SHT31;63012;51.096;-115.366;2022-12-18T00:06:29;-16.92;75.61
74534;SHT31;63012;51.096;-115.366;2022-12-18T00:08:58;-16.96;75.64
74534;SHT31;63012;51.096;-115.366;2022-12-18T00:11:28;-16.99;75.70
74534;SHT31;63012;51.096;-115.366;2022-12-18T00:13:58;-17.03;75.73
74534;SHT31;63012;51.096;-115.366;2022-12-18T00:16:27;-17.06;75.78
74534;SHT31;63012;51.096;-115.366;2022-12-18T00:19:00;-17.08;75.73
74534;SHT31;63012;51.096;-115.366;2022-12-18T00:21:29;-17.11;75.60
74534;SHT31;63012;51.096;-115.366;2022-12-18T00:23:57;-17.18;75.49
74534;SHT31;63012;51.096;-115.366;2022-12-18T00:26:27;-17.28;75.43
74534;SHT31;63012;51.096;-115.366;2022-12-18T00:28:58;-17.33;75.46
74534;SHT31;63012;51.096;-115.366;2022-12-18T00:31:28;-17.37;75.44
74534;SHT31;63012;51.096;-115.366;2022-12-18T00:33:56;-17.44;75.44
74534;SHT31;63012;51.096;-115.366;2022-12-18T00:36:25;-17.49;75.55
74534;SHT31;63012;51.096;-115.366;2022-12-18T00:38:56;-17.50;75.73
74534;SHT31;63012;51.096;-115.366;2022-12-18T00:41:25;-17.54;75.72
74534;SHT31;63012;51.096;-115.366;2022-12-18T00:44:12;-17.53;75.77
74534;SHT31;63012;51.096;-115.366;2022-12-18T00:46:42;-17.55;75.84
74534;SHT31;63012;51.096;-115.366;2022-12-18T00:49:10;-17.55;75.90
74534;SHT31;63012;51.096;-115.366;2022-12-18T00:51:37;-17.56;75.97
74534;SHT31;63012;51.096;-115.366;2022-12-18T00:54:05;-17.55;76.00
74534;SHT31;63012;51.096;-115.366;2022-12-18T00:56:32;-17.55;76.01
74534;SHT31;63012;51.096;-115.366;2022-12-18T00:59:02;-17.55;76.00
74534;SHT31;63012;51.096;-115.366;2022-12-18T01:01:30;-17.53;75.99
74534;SHT31;63012;51.096;-115.366;2022-12-18T01:03:59;-17.50;76.00
74534;SHT31;63012;51.096;-115.366;2022-12-18T01:06:28;-17.49;75.98
74534;SHT31;63012;51.096;-115.366;2022-12-18T01:08:55;-17.49;75.92
74534;SHT31;63012;51.096;-115.366;2022-12-18T01:11:23;-17.47;75.80
74534;SHT31;63012;51.096;-115.366;2022-12-18T01:13:51;-17.49;75.72
74534;SHT31;63012;51.096;-115.366;2022-12-18T01:16:20;-17.51;75.60
74534;SHT31;63012;51.096;-115.366;2022-12-18T01:18:50;-17.50;75.69
74534;SHT31;63012;51.096;-115.366;2022-12-18T01:21:20;-17.50;75.76
74534;SHT31;63012;51.096;-115.366;2022-12-18T01:23:52;-17.55;75.82
74534;SHT31;63012;51.096;-115.366;2022-12-18T01:26:21;-17.59;75.90
74534;SHT31;63012;51.096;-115.366;2022-12-18T01:28:48;-17.62;75.99
74534;SHT31;63012;51.096;-115.366;2022-12-18T01:31:19;-17.62;76.00
74534;SHT31;63012;51.096;-115.366;2022-12-18T01:33:50;-17.66;75.99
74534;SHT31;63012;51.096;-115.366;2022-12-18T01:36:29;-17.72;76.00
74534;SHT31;63012;51.096;-115.366;2022-12-18T01:39:02;-17.76;76.00
74534;SHT31;63012;51.096;-115.366;2022-12-18T01:41:37;-17.81;76.00
74534;SHT31;63012;51.096;-115.366;2022-12-18T01:47:45;-17.88;75.90
74534;SHT31;63012;51.096;-115.366;2022-12-18T01:53:11;-17.93;75.68
74534;SHT31;63012;51.096;-115.366;2022-12-18T01:55:43;-18.00;75.65
74534;SHT31;63012;51.096;-115.366;2022-12-18T01:58:16;-18.03;75.70
74534;SHT31;63012;51.096;-115.366;2022-12-18T02:00:45;-18.06;75.74
74534;SHT31;63012;51.096;-115.366;2022-12-18T02:03:13;-18.09;75.77
74534;SHT31;63012;51.096;-115.366;2022-12-18T02:05:48;-18.13;75.74
74534;SHT31;63012;51.096;-115.366;2022-12-18T02:14:18;-18.18;75.80
74534;SHT31;63012;51.096;-115.366;2022-12-18T02:28:45;-18.21;76.04
74534;SHT31;63012;51.096;-115.366;2022-12-18T02:31:26;-18.25;75.99
74534;SHT31;63012;51.096;-115.366;2022-12-18T02:34:01;-18.27;75.99
74534;SHT31;63012;51.096;-115.366;2022-12-18T02:36:33;-18.27;75.90
74534;SHT31;63012;51.096;-115.366;2022-12-18T02:39:05;-18.30;75.90
74534;SHT31;63012;51.096;-115.366;2022-12-18T02:41:36;-18.37;75.81
74534;SHT31;63012;51.096;-115.366;2022-12-18T02:44:09;-18.44;75.80
74534;SHT31;63012;51.096;-115.366;2022-12-18T02:46:45;-18.43;75.86
74534;SHT31;63012;51.096;-115.366;2022-12-18T02:49:35;-18.45;75.90
74534;SHT31;63012;51.096;-115.366;2022-12-18T02:56:32;-18.54;75.82
74534;SHT31;63012;51.096;-115.366;2022-12-18T02:59:13;-18.60;75.78
74534;SHT31;63012;51.096;-115.366;2022-12-18T03:05:14;-18.60;75.92
74534;SHT31;63012;51.096;-115.366;2022-12-18T03:10:34;-18.61;76.10
74534;SHT31;63012;51.096;-115.366;2022-12-18T03:13:20;-18.67;76.08
74534;SHT31;63012;51.096;-115.366;2022-12-18T03:16:23;-18.69;76.19
74534;SHT31;63012;51.096;-115.366;2022-12-18T03:21:53;-18.75;76.20
74534;SHT31;63012;51.096;-115.366;2022-12-18T03:24:25;-18.76;76.11
74534;SHT31;63012;51.096;-115.366;2022-12-18T03:26:58;-18.80;75.95
74534;SHT31;63012;51.096;-115.366;2022-12-18T03:29:35;-18.81;75.84
74534;SHT31;63012;51.096;-115.366;2022-12-18T03:32:14;-18.84;75.66
74534;SHT31;63012;51.096;-115.366;2022-12-18T03:34:57;-18.86;75.48
74534;SHT31;63012;51.096;-115.366;2022-12-18T03:37:30;-18.88;75.40
74534;SHT31;63012;51.096;-115.366;2022-12-18T03:39:58;-18.85;75.46
74534;SHT31;63012;51.096;-115.366;2022-12-18T03:48:04;-18.84;75.21
74534;SHT31;63012;51.096;-115.366;2022-12-18T03:53:21;-18.89;74.90
74534;SHT31;63012;51.096;-115.366;2022-12-18T03:56:10;-18.88;74.99
74534;SHT31;63012;51.096;-115.366;2022-12-18T03:58:42;-18.89;74.93
74534;SHT31;63012;51.096;-115.366;2022-12-18T04:01:13;-18.93;74.82
74534;SHT31;63012;51.096;-115.366;2022-12-18T04:03:44;-18.93;74.83
74534;SHT31;63012;51.096;-115.366;2022-12-18T04:06:15;-18.93;74.80
74534;SHT31;63012;51.096;-115.366;2022-12-18T04:08:44;-18.93;74.82
74534;SHT31;63012;51.096;-115.366;2022-12-18T04:11:12;-18.90;74.87
74534;SHT31;63012;51.096;-115.366;2022-12-18T04:13:42;-18.89;74.75
74534;SHT31;63012;51.096;-115.366;2022-12-18T04:16:09;-18.84;74.86
74534;SHT31;63012;51.096;-115.366;2022-12-18T04:18:36;-18.77;74.82
74534;SHT31;63012;51.096;-115.366;2022-12-18T04:21:04;-18.72;74.69
74534;SHT31;63012;51.096;-115.366;2022-12-18T04:23:31;-18.67;74.65
74534;SHT31;63012;51.096;-115.366;2022-12-18T04:25:58;-18.64;74.44
74534;SHT31;63012;51.096;-115.366;2022-12-18T04:28:25;-18.61;74.33
74534;SHT31;63012;51.096;-115.366;2022-12-18T04:30:52;-18.60;74.27
74534;SHT31;63012;51.096;-115.366;2022-12-18T04:33:19;-18.63;74.14
74534;SHT31;63012;51.096;-115.366;2022-12-18T04:35:46;-18.59;74.01
74534;SHT31;63012;51.096;-115.366;2022-12-18T04:38:13;-18.64;73.82
74534;SHT31;63012;51.096;-115.366;2022-12-18T04:40:40;-18.69;73.86
74534;SHT31;63012;51.096;-115.366;2022-12-18T04:43:08;-18.75;73.84
74534;SHT31;63012;51.096;-115.366;2022-12-18T04:45:36;-18.72;73.90
74534;SHT31;63012;51.096;-115.366;2022-12-18T04:48:03;-18.75;73.90
74534;SHT31;63012;51.096;-115.366;2022-12-18T04:50:31;-18.80;73.90
74534;SHT31;63012;51.096;-115.366;2022-12-18T04:52:58;-18.74;73.87
74534;SHT31;63012;51.096;-115.366;2022-12-18T04:55:26;-18.64;73.84
74534;SHT31;63012;51.096;-115.366;2022-12-18T04:57:53;-18.68;73.56
74534;SHT31;63012;51.096;-115.366;2022-12-18T05:00:21;-18.71;73.60
74534;SHT31;63012;51.096;-115.366;2022-12-18T05:02:48;-18.69;73.60
74534;SHT31;63012;51.096;-115.366;2022-12-18T05:05:15;-18.67;73.44
74534;SHT31;63012;51.096;-115.366;2022-12-18T05:07:43;-18.76;73.19
74534;SHT31;63012;51.096;-115.366;2022-12-18T05:10:10;-18.78;73.25
74534;SHT31;63012;51.096;-115.366;2022-12-18T05:12:37;-18.76;73.26
74534;SHT31;63012;51.096;-115.366;2022-12-18T05:15:23;-18.78;73.15
74534;SHT31;63012;51.096;-115.366;2022-12-18T05:17:54;-18.83;73.10
74534;SHT31;63012;51.096;-115.366;2022-12-18T05:20:22;-18.92;73.13
74534;SHT31;63012;51.096;-115.366;2022-12-18T05:22:50;-18.97;73.11
74534;SHT31;63012;51.096;-115.366;2022-12-18T05:25:18;-19.01;73.14
74534;SHT31;63012;51.096;-115.366;2022-12-18T05:27:46;-19.06;73.08
74534;SHT31;63012;51.096;-115.366;2022-12-18T05:30:14;-19.09;73.00
74534;SHT31;63012;51.096;-115.366;2022-12-18T05:32:41;-19.12;72.91
74534;SHT31;63012;51.096;-115.366;2022-12-18T05:35:09;-19.11;72.97
74534;SHT31;63012;51.096;-115.366;2022-12-18T05:37:37;-19.11;73.01
74534;SHT31;63012;51.096;-115.366;2022-12-18T05:40:04;-19.16;73.01
74534;SHT31;63012;51.096;-115.366;2022-12-18T05:42:32;-19.16;73.02
74534;SHT31;63012;51.096;-115.366;2022-12-18T05:45:00;-19.12;73.04
74534;SHT31;63012;51.096;-115.366;2022-12-18T05:47:27;-19.08;72.96
74534;SHT31;63012;51.096;-115.366;2022-12-18T05:49:54;-19.06;72.80
74534;SHT31;63012;51.096;-115.366;2022-12-18T05:52:21;-19.03;72.80
74534;SHT31;63012;51.096;-115.366;2022-12-18T05:54:49;-19.04;72.71
74534;SHT31;63012;51.096;-115.366;2022-12-18T05:57:16;-19.11;72.70
74534;SHT31;63012;51.096;-115.366;2022-12-18T05:59:43;-19.15;72.75
74534;SHT31;63012;51.096;-115.366;2022-12-18T06:02:10;-19.11;72.77
74534;SHT31;63012;51.096;-115.366;2022-12-18T06:04:37;-19.10;72.68
74534;SHT31;63012;51.096;-115.366;2022-12-18T06:07:04;-19.10;72.60
74534;SHT31;63012;51.096;-115.366;2022-12-18T06:09:32;-19.12;72.51
74534;SHT31;63012;51.096;-115.366;2022-12-18T06:11:59;-19.14;72.37
74534;SHT31;63012;51.096;-115.366;2022-12-18T06:14:25;-19.18;72.21
74534;SHT31;63012;51.096;-115.366;2022-12-18T06:16:53;-19.19;72.30
74534;SHT31;63012;51.096;-115.366;2022-12-18T06:19:20;-19.25;72.24
74534;SHT31;63012;51.096;-115.366;2022-12-18T06:21:47;-19.29;72.34
74534;SHT31;63012;51.096;-115.366;2022-12-18T06:24:14;-19.27;72.42
74534;SHT31;63012;51.096;-115.366;2022-12-18T06:26:41;-19.21;72.49
74534;SHT31;63012;51.096;-115.366;2022-12-18T06:29:08;-19.22;72.39
74534;SHT31;63012;51.096;-115.366;2022-12-18T06:31:36;-19.26;72.30
74534;SHT31;63012;51.096;-115.366;2022-12-18T06:34:03;-19.26;72.42
74534;SHT31;63012;51.096;-115.366;2022-12-18T06:36:31;-19.28;72.33
74534;SHT31;63012;51.096;-115.366;2022-12-18T06:38:58;-19.30;72.40
74534;SHT31;63012;51.096;-115.366;2022-12-18T06:41:25;-19.35;72.54
74534;SHT31;63012;51.096;-115.366;2022-12-18T06:43:52;-19.35;72.59
74534;SHT31;63012;51.096;-115.366;2022-12-18T06:46:19;-19.37;72.66
74534;SHT31;63012;51.096;-115.366;2022-12-18T06:48:47;-19.34;72.70
74534;SHT31;63012;51.096;-115.366;2022-12-18T06:51:17;-19.35;72.62
74534;SHT31;63012;51.096;-115.366;2022-12-18T06:53:48;-19.42;72.60
74534;SHT31;63012;51.096;-115.366;2022-12-18T06:56:16;-19.47;72.62
74534;SHT31;63012;51.096;-115.366;2022-12-18T06:58:43;-19.46;72.61
74534;SHT31;63012;51.096;-115.366;2022-12-18T07:01:11;-19.40;72.64
74534;SHT31;63012;51.096;-115.366;2022-12-18T07:03:39;-19.35;72.55
74534;SHT31;63012;51.096;-115.366;2022-12-18T07:06:14;-19.34;72.54
74534;SHT31;63012;51.096;-115.366;2022-12-18T07:08:45;-19.32;72.46
74534;SHT31;63012;51.096;-115.366;2022-12-18T07:11:14;-19.32;72.39
74534;SHT31;63012;51.096;-115.366;2022-12-18T07:13:43;-19.35;72.16
74534;SHT31;63012;51.096;-115.366;2022-12-18T07:16:12;-19.42;72.03
74534;SHT31;63012;51.096;-115.366;2022-12-18T07:18:43;-19.49;72.03
74534;SHT31;63012;51.096;-115.366;2022-12-18T07:21:13;-19.55;71.96
74534;SHT31;63012;51.096;-115.366;2022-12-18T07:23:43;-19.61;71.90
74534;SHT31;63012;51.096;-115.366;2022-12-18T07:26:13;-19.67;71.97
74534;SHT31;63012;51.096;-115.366;2022-12-18T07:28:43;-19.69;71.99
74534;SHT31;63012;51.096;-115.366;2022-12-18T07:31:11;-19.73;72.05
74534;SHT31;63012;51.096;-115.366;2022-12-18T07:33:41;-19.75;72.10
74534;SHT31;63012;51.096;-115.366;2022-12-18T07:36:10;-19.79;72.19
74534;SHT31;63012;51.096;-115.366;2022-12-18T07:38:37;-19.82;72.33
74534;SHT31;63012;51.096;-115.366;2022-12-18T07:41:06;-19.81;72.51
74534;SHT31;63012;51.096;-115.366;2022-12-18T07:43:36;-19.82;72.63
74534;SHT31;63012;51.096;-115.366;2022-12-18T07:46:04;-19.83;72.69
74534;SHT31;63012;51.096;-115.366;2022-12-18T07:48:32;-19.83;72.66
74534;SHT31;63012;51.096;-115.366;2022-12-18T07:51:00;-19.83;72.78
74534;SHT31;63012;51.096;-115.366;2022-12-18T07:53:29;-19.83;72.80
74534;SHT31;63012;51.096;-115.366;2022-12-18T07:55:57;-19.83;72.80
74534;SHT31;63012;51.096;-115.366;2022-12-18T07:58:28;-19.87;72.81
74534;SHT31;63012;51.096;-115.366;2022-12-18T08:01:05;-19.87;72.90
74534;SHT31;63012;51.096;-115.366;2022-12-18T08:03:37;-19.89;72.81
74534;SHT31;63012;51.096;-115.366;2022-12-18T08:06:06;-19.92;72.71
74534;SHT31;63012;51.096;-115.366;2022-12-18T08:08:35;-19.95;72.79
74534;SHT31;63012;51.096;-115.366;2022-12-18T08:11:03;-19.92;72.80
74534;SHT31;63012;51.096;-115.366;2022-12-18T08:13:30;-19.90;72.84
74534;SHT31;63012;51.096;-115.366;2022-12-18T08:16:07;-19.86;72.95
74534;SHT31;63012;51.096;-115.366;2022-12-18T08:18:34;-19.86;72.95
74534;SHT31;63012;51.096;-115.366;2022-12-18T08:21:16;-19.87;73.00
74534;SHT31;63012;51.096;-115.366;2022-12-18T08:23:48;-19.92;73.03
74534;SHT31;63012;51.096;-115.366;2022-12-18T08:26:17;-19.91;73.11
74534;SHT31;63012;51.096;-115.366;2022-12-18T08:28:46;-19.88;73.07
74534;SHT31;63012;51.096;-115.366;2022-12-18T08:31:13;-19.92;72.94
74534;SHT31;63012;51.096;-115.366;2022-12-18T08:33:41;-19.94;72.98
74534;SHT31;63012;51.096;-115.366;2022-12-18T08:36:09;-19.96;72.90
74534;SHT31;63012;51.096;-115.366;2022-12-18T08:38:37;-20.03;72.71
74534;SHT31;63012;51.096;-115.366;2022-12-18T08:41:05;-20.10;72.76
74534;SHT31;63012;51.096;-115.366;2022-12-18T08:43:36;-20.11;72.80
74534;SHT31;63012;51.096;-115.366;2022-12-18T08:46:22;-20.12;72.76
74534;SHT31;63012;51.096;-115.366;2022-12-18T08:48:53;-20.14;72.80
74534;SHT31;63012;51.096;-115.366;2022-12-18T08:51:21;-20.15;72.88
74534;SHT31;63012;51.096;-115.366;2022-12-18T08:53:48;-20.17;72.80
74534;SHT31;63012;51.096;-115.366;2022-12-18T08:56:16;-20.18;72.95
74534;SHT31;63012;51.096;-115.366;2022-12-18T08:58:43;-20.17;72.96
74534;SHT31;63012;51.096;-115.366;2022-12-18T09:01:11;-20.20;72.90
74534;SHT31;63012;51.096;-115.366;2022-12-18T09:03:39;-20.21;72.95
74534;SHT31;63012;51.096;-115.366;2022-12-18T09:06:06;-20.23;72.93
74534;SHT31;63012;51.096;-115.366;2022-12-18T09:08:33;-20.27;72.94
74534;SHT31;63012;51.096;-115.366;2022-12-18T09:11:04;-20.30;73.07
74534;SHT31;63012;51.096;-115.366;2022-12-18T09:13:44;-20.31;73.11
74534;SHT31;63012;51.096;-115.366;2022-12-18T09:16:11;-20.34;73.03
74534;SHT31;63012;51.096;-115.366;2022-12-18T09:18:38;-20.38;73.15
74534;SHT31;63012;51.096;-115.366;2022-12-18T09:21:09;-20.37;73.17
74534;SHT31;63012;51.096;-115.366;2022-12-18T09:23:49;-20.40;73.11
74534;SHT31;63012;51.096;-115.366;2022-12-18T09:26:19;-20.41;73.14
74534;SHT31;63012;51.096;-115.366;2022-12-18T09:28:50;-20.46;73.12
74534;SHT31;63012;51.096;-115.366;2022-12-18T09:31:18;-20.49;73.20
74534;SHT31;63012;51.096;-115.366;2022-12-18T09:33:47;-20.51;73.22
74534;SHT31;63012;51.096;-115.366;2022-12-18T09:36:16;-20.49;73.28
74534;SHT31;63012;51.096;-115.366;2022-12-18T09:38:44;-20.50;73.20
74534;SHT31;63012;51.096;-115.366;2022-12-18T09:41:24;-20.48;73.20
74534;SHT31;63012;51.096;-115.366;2022-12-18T09:47:05;-20.49;73.12
74534;SHT31;63012;51.096;-115.366;2022-12-18T09:50:00;-20.51;73.08
74534;SHT31;63012;51.096;-115.366;2022-12-18T09:52:53;-20.53;73.21
74534;SHT31;63012;51.096;-115.366;2022-12-18T09:55:28;-20.56;73.34
74534;SHT31;63012;51.096;-115.366;2022-12-18T10:01:17;-20.53;73.51
74534;SHT31;63012;51.096;-115.366;2022-12-18T10:03:48;-20.54;73.47
74534;SHT31;63012;51.096;-115.366;2022-12-18T10:09:08;-20.57;73.47
74534;SHT31;63012;51.096;-115.366;2022-12-18T10:15:24;-20.61;73.27
74534;SHT31;63012;51.096;-115.366;2022-12-18T10:18:22;-20.66;73.23
74534;SHT31;63012;51.096;-115.366;2022-12-18T10:24:42;-20.71;73.30
74534;SHT31;63012;51.096;-115.366;2022-12-18T10:27:29;-20.74;73.40
74534;SHT31;63012;51.096;-115.366;2022-12-18T10:29:57;-20.75;73.47
74534;SHT31;63012;51.096;-115.366;2022-12-18T10:32:27;-20.77;73.54
74534;SHT31;63012;51.096;-115.366;2022-12-18T10:34:57;-20.80;73.63
74534;SHT31;63012;51.096;-115.366;2022-12-18T10:37:25;-20.80;73.71
74534;SHT31;63012;51.096;-115.366;2022-12-18T10:40:07;-20.78;73.70
74534;SHT31;63012;51.096;-115.366;2022-12-18T10:42:41;-20.80;73.63
74534;SHT31;63012;51.096;-115.366;2022-12-18T10:45:11;-20.83;73.60
74534;SHT31;63012;51.096;-115.366;2022-12-18T10:47:46;-20.87;73.70
74534;SHT31;63012;51.096;-115.366;2022-12-18T10:50:48;-20.89;73.70
74534;SHT31;63012;51.096;-115.366;2022-12-18T10:53:18;-20.91;73.66
74534;SHT31;63012;51.096;-115.366;2022-12-18T10:55:48;-20.93;73.59
74534;SHT31;63012;51.096;-115.366;2022-12-18T10:58:23;-20.97;73.61
74534;SHT31;63012;51.096;-115.366;2022-12-18T11:06:23;-20.99;73.80
74534;SHT31;63012;51.096;-115.366;2022-12-18T11:09:25;-21.01;73.74
74534;SHT31;63012;51.096;-115.366;2022-12-18T11:12:01;-21.03;73.79
74534;SHT31;63012;51.096;-115.366;2022-12-18T11:14:43;-21.04;73.80
74534;SHT31;63012;51.096;-115.366;2022-12-18T11:19:59;-21.11;73.90
74534;SHT31;63012;51.096;-115.366;2022-12-18T11:22:35;-21.13;73.90
74534;SHT31;63012;51.096;-115.366;2022-12-18T11:25:04;-21.17;73.90
74534;SHT31;63012;51.096;-115.366;2022-12-18T11:27:46;-21.16;73.90
74534;SHT31;63012;51.096;-115.366;2022-12-18T11:36:43;-21.19;73.90
74534;SHT31;63012;51.096;-115.366;2022-12-18T11:39:59;-21.16;73.86
74534;SHT31;63012;51.096;-115.366;2022-12-18T11:53:23;-21.29;73.99
74534;SHT31;63012;51.096;-115.366;2022-12-18T11:56:14;-21.31;73.97
74534;SHT31;63012;51.096;-115.366;2022-12-18T12:01:55;-21.25;73.99
74534;SHT31;63012;51.096;-115.366;2022-12-18T12:07:52;-21.22;73.90
74534;SHT31;63012;51.096;-115.366;2022-12-18T12:14:01;-21.24;73.73
74534;SHT31;63012;51.096;-115.366;2022-12-18T12:17:18;-21.25;73.74
74534;SHT31;63012;51.096;-115.366;2022-12-18T12:20:36;-21.24;73.71
74534;SHT31;63012;51.096;-115.366;2022-12-18T12:26:03;-21.34;73.55
74534;SHT31;63012;51.096;-115.366;2022-12-18T12:29:28;-21.32;73.49
74534;SHT31;63012;51.096;-115.366;2022-12-18T12:32:03;-21.26;73.53
74534;SHT31;63012;51.096;-115.366;2022-12-18T12:37:33;-21.29;73.48
74534;SHT31;63012;51.096;-115.366;2022-12-18T12:40:29;-21.27;73.49
74534;SHT31;63012;51.096;-115.366;2022-12-18T12:46:10;-21.37;73.27
74534;SHT31;63012;51.096;-115.366;2022-12-18T12:51:23;-21.39;73.20
74534;SHT31;63012;51.096;-115.366;2022-12-18T12:54:04;-21.37;73.20
74534;SHT31;63012;51.096;-115.366;2022-12-18T13:08:24;-21.44;73.00
74534;SHT31;63012;51.096;-115.366;2022-12-18T13:10:54;-21.44;73.07
74534;SHT31;63012;51.096;-115.366;2022-12-18T13:13:54;-21.45;73.06
74534;SHT31;63012;51.096;-115.366;2022-12-18T13:16:23;-21.49;73.01
74534;SHT31;63012;51.096;-115.366;2022-12-18T13:18:56;-21.47;73.04
74534;SHT31;63012;51.096;-115.366;2022-12-18T13:21:26;-21.48;73.02
74534;SHT31;63012;51.096;-115.366;2022-12-18T13:24:15;-21.51;73.10
74534;SHT31;63012;51.096;-115.366;2022-12-18T13:26:53;-21.55;73.11
74534;SHT31;63012;51.096;-115.366;2022-12-18T13:32:24;-21.57;73.06
74534;SHT31;63012;51.096;-115.366;2022-12-18T13:35:37;-21.61;73.11
74534;SHT31;63012;51.096;-115.366;2022-12-18T13:37:51;-21.59;73.15
74534;SHT31;63012;51.096;-115.366;2022-12-18T13:40:39;-21.57;73.02
74534;SHT31;63012;51.096;-115.366;2022-12-18T13:43:27;-21.61;73.00
74534;SHT31;63012;51.096;-115.366;2022-12-18T13:46:30;-21.61;73.00
74534;SHT31;63012;51.096;-115.366;2022-12-18T13:52:39;-21.63;72.92
74534;SHT31;63012;51.096;-115.366;2022-12-18T13:55:04;-21.69;72.95
74534;SHT31;63012;51.096;-115.366;2022-12-18T13:57:42;-21.71;73.00
74534;SHT31;63012;51.096;-115.366;2022-12-18T14:00:26;-21.75;73.03
74534;SHT31;63012;51.096;-115.366;2022-12-18T14:02:57;-21.78;73.02
74534;SHT31;63012;51.096;-115.366;2022-12-18T14:05:29;-21.78;73.00
74534;SHT31;63012;51.096;-115.366;2022-12-18T14:08:07;-21.79;73.00
74534;SHT31;63012;51.096;-115.366;2022-12-18T14:10:45;-21.83;73.00
74534;SHT31;63012;51.096;-115.366;2022-12-18T14:13:49;-21.85;72.91
74534;SHT31;63012;51.096;-115.366;2022-12-18T14:16:11;-21.92;72.99
74534;SHT31;63012;51.096;-115.366;2022-12-18T14:18:55;-21.90;73.15
74534;SHT31;63012;51.096;-115.366;2022-12-18T14:21:30;-21.90;73.20
74534;SHT31;63012;51.096;-115.366;2022-12-18T14:24:33;-21.92;73.24
74534;SHT31;63012;51.096;-115.366;2022-12-18T14:26:56;-21.91;73.30
74534;SHT31;63012;51.096;-115.366;2022-12-18T14:29:50;-21.90;73.30
74534;SHT31;63012;51.096;-115.366;2022-12-18T14:32:18;-21.92;73.30
74534;SHT31;63012;51.096;-115.366;2022-12-18T14:34:47;-21.89;73.31
74534;SHT31;63012;51.096;-115.366;2022-12-18T14:37:18;-21.89;73.30
74534;SHT31;63012;51.096;-115.366;2022-12-18T14:39:54;-21.90;73.29
74534;SHT31;63012;51.096;-115.366;2022-12-18T14:42:26;-21.95;73.14
74534;SHT31;63012;51.096;-115.366;2022-12-18T14:48:00;-22.04;73.20
74534;SHT31;63012;51.096;-115.366;2022-12-18T14:51:03;-22.08;73.27
74534;SHT31;63012;51.096;-115.366;2022-12-18T14:53:46;-22.17;73.34
74534;SHT31;63012;51.096;-115.366;2022-12-18T14:58:57;-22.23;73.56
74534;SHT31;63012;51.096;-115.366;2022-12-18T15:01:31;-22.25;73.57
74534;SHT31;63012;51.096;-115.366;2022-12-18T15:04:04;-22.26;73.60
74534;SHT31;63012;51.096;-115.366;2022-12-18T15:06:54;-22.25;73.60
74534;SHT31;63012;51.096;-115.366;2022-12-18T15:09:30;-22.29;73.63
74534;SHT31;63012;51.096;-115.366;2022-12-18T15:11:58;-22.28;73.64
74534;SHT31;63012;51.096;-115.366;2022-12-18T15:17:01;-22.31;73.72
74534;SHT31;63012;51.096;-115.366;2022-12-18T15:19:42;-22.33;73.80
74534;SHT31;63012;51.096;-115.366;2022-12-18T15:24:55;-22.34;73.90
74534;SHT31;63012;51.096;-115.366;2022-12-18T15:27:25;-22.33;73.93
74534;SHT31;63012;51.096;-115.366;2022-12-18T15:30:02;-22.35;73.93
74534;SHT31;63012;51.096;-115.366;2022-12-18T15:32:44;-22.35;74.01
74534;SHT31;63012;51.096;-115.366;2022-12-18T15:35:19;-22.35;74.03
74534;SHT31;63012;51.096;-115.366;2022-12-18T15:37:51;-22.34;74.05
74534;SHT31;63012;51.096;-115.366;2022-12-18T15:40:20;-22.34;74.04
74534;SHT31;63012;51.096;-115.366;2022-12-18T15:42:51;-22.36;74.04
74534;SHT31;63012;51.096;-115.366;2022-12-18T15:45:39;-22.37;74.00
74534;SHT31;63012;51.096;-115.366;2022-12-18T15:48:15;-22.39;74.00
74534;SHT31;63012;51.096;-115.366;2022-12-18T15:50:52;-22.35;74.00
74534;SHT31;63012;51.096;-115.366;2022-12-18T15:53:23;-22.34;74.02
74534;SHT31;63012;51.096;-115.366;2022-12-18T15:55:53;-22.34;74.09
74534;SHT31;63012;51.096;-115.366;2022-12-18T15:58:39;-22.35;74.01
74534;SHT31;63012;51.096;-115.366;2022-12-18T16:01:07;-22.37;74.00
74534;SHT31;63012;51.096;-115.366;2022-12-18T16:03:36;-22.33;74.04
74534;SHT31;63012;51.096;-115.366;2022-12-18T16:06:04;-22.33;74.08
74534;SHT31;63012;51.096;-115.366;2022-12-18T16:08:31;-22.31;74.11
74534;SHT31;63012;51.096;-115.366;2022-12-18T16:10:59;-22.28;74.19
74534;SHT31;63012;51.096;-115.366;2022-12-18T16:13:27;-22.27;74.20
74534;SHT31;63012;51.096;-115.366;2022-12-18T16:15:54;-22.27;74.10
74534;SHT31;63012;51.096;-115.366;2022-12-18T16:18:21;-22.25;74.05
74534;SHT31;63012;51.096;-115.366;2022-12-18T16:20:48;-22.24;74.02
74534;SHT31;63012;51.096;-115.366;2022-12-18T16:23:15;-22.24;74.00
74534;SHT31;63012;51.096;-115.366;2022-12-18T16:25:42;-22.23;74.00
74534;SHT31;63012;51.096;-115.366;2022-12-18T16:28:09;-22.24;74.00
74534;SHT31;63012;51.096;-115.366;2022-12-18T16:30:36;-22.24;73.95
74534;SHT31;63012;51.096;-115.366;2022-12-18T16:33:03;-22.25;73.87
74534;SHT31;63012;51.096;-115.366;2022-12-18T16:35:30;-22.27;73.80
74534;SHT31;63012;51.096;-115.366;2022-12-18T16:37:57;-22.26;73.84
74534;SHT31;63012;51.096;-115.366;2022-12-18T16:40:25;-22.24;73.76
74534;SHT31;63012;51.096;-115.366;2022-12-18T16:42:52;-22.22;73.72
74534;SHT31;63012;51.096;-115.366;2022-12-18T16:45:19;-22.14;73.80
74534;SHT31;63012;51.096;-115.366;2022-12-18T16:47:46;-22.09;73.80
74534;SHT31;63012;51.096;-115.366;2022-12-18T16:50:15;-22.07;73.68
74534;SHT31;63012;51.096;-115.366;2022-12-18T16:52:42;-22.03;73.60
74534;SHT31;63012;51.096;-115.366;2022-12-18T16:55:09;-22.00;73.44
74534;SHT31;63012;51.096;-115.366;2022-12-18T16:57:36;-21.99;73.33
74534;SHT31;63012;51.096;-115.366;2022-12-18T17:00:03;-21.98;73.23
74534;SHT31;63012;51.096;-115.366;2022-12-18T17:02:32;-21.95;73.18
74534;SHT31;63012;51.096;-115.366;2022-12-18T17:04:59;-21.97;72.98
74534;SHT31;63012;51.096;-115.366;2022-12-18T17:07:26;-21.93;72.92
74534;SHT31;63012;51.096;-115.366;2022-12-18T17:09:53;-21.89;72.90
74534;SHT31;63012;51.096;-115.366;2022-12-18T17:12:21;-21.84;72.89
74534;SHT31;63012;51.096;-115.366;2022-12-18T17:14:48;-21.82;72.80
74534;SHT31;63012;51.096;-115.366;2022-12-18T17:17:15;-21.82;72.69
74534;SHT31;63012;51.096;-115.366;2022-12-18T17:19:43;-21.80;72.75
74534;SHT31;63012;51.096;-115.366;2022-12-18T17:22:10;-21.78;72.67
74534;SHT31;63012;51.096;-115.366;2022-12-18T17:24:37;-21.79;72.63
74534;SHT31;63012;51.096;-115.366;2022-12-18T17:27:04;-21.83;72.68